createdAt,value
2022-08-02T00:00:21.028Z,22.55
2022-08-02T00:02:49.527Z,22.54
2022-08-02T00:05:17.569Z,22.55
2022-08-02T00:07:45.549Z,22.56
2022-08-02T00:10:13.762Z,22.55
2022-08-02T00:12:43.091Z,22.55
2022-08-02T00:15:16.073Z,22.55
2022-08-02T00:17:44.463Z,22.53
2022-08-02T00:20:15.056Z,22.53
2022-08-02T00:22:42.989Z,22.53
2022-08-02T00:25:11.058Z,22.52
2022-08-02T00:27:39.114Z,22.52
2022-08-02T00:30:09.942Z,22.51
2022-08-02T00:32:37.905Z,22.53
2022-08-02T00:35:06.763Z,22.52
2022-08-02T00:37:34.714Z,22.50
2022-08-02T00:40:03.331Z,22.49
2022-08-02T00:42:31.377Z,22.50
2022-08-02T00:44:59.299Z,22.49
2022-08-02T00:47:28.670Z,22.50
2022-08-02T00:49:56.791Z,22.49
2022-08-02T00:52:25.970Z,22.48
2022-08-02T00:54:53.954Z,22.48
2022-08-02T00:57:21.855Z,22.48
2022-08-02T00:59:49.861Z,22.48
2022-08-02T01:02:17.903Z,22.48
2022-08-02T01:04:47.347Z,22.48
2022-08-02T01:07:15.811Z,22.48
2022-08-02T01:09:44.104Z,22.46
2022-08-02T01:12:13.568Z,22.47
2022-08-02T01:14:44.532Z,22.47
2022-08-02T01:17:19.769Z,22.48
2022-08-02T01:19:55.951Z,22.47
2022-08-02T01:23:01.027Z,22.46
2022-08-02T01:25:46.090Z,22.46
2022-08-02T01:28:33.300Z,22.45
2022-08-02T01:31:05.672Z,22.45
2022-08-02T01:33:37.878Z,22.45
2022-08-02T01:36:10.754Z,22.46
2022-08-02T01:38:43.159Z,22.45
2022-08-02T01:41:13.759Z,22.46
2022-08-02T01:43:45.523Z,22.45
2022-08-02T01:46:15.286Z,22.45
2022-08-02T01:48:45.373Z,22.45
2022-08-02T01:51:17.286Z,22.45
2022-08-02T01:53:49.567Z,22.44
2022-08-02T01:56:18.640Z,22.45
2022-08-02T01:58:49.207Z,22.45
2022-08-02T02:01:19.296Z,22.44
2022-08-02T02:03:49.750Z,22.44
2022-08-02T02:06:19.442Z,22.43
2022-08-02T02:08:48.657Z,22.43
2022-08-02T02:12:10.090Z,22.44
2022-08-02T02:14:08.845Z,22.43
2022-08-02T02:16:37.509Z,22.43
2022-08-02T02:19:08.617Z,22.43
2022-08-02T02:21:38.159Z,22.43
2022-08-02T02:24:11.653Z,22.43
2022-08-02T02:26:42.957Z,22.42
2022-08-02T02:29:23.101Z,22.42
2022-08-02T02:31:55.062Z,22.41
2022-08-02T02:34:27.717Z,22.42
2022-08-02T02:36:57.674Z,22.41
2022-08-02T02:39:28.573Z,22.41
2022-08-02T02:42:01.429Z,22.42
2022-08-02T02:44:32.171Z,22.40
2022-08-02T02:47:01.934Z,22.40
2022-08-02T02:49:34.046Z,22.40
2022-08-02T02:52:02.729Z,22.39
2022-08-02T02:54:34.356Z,22.41
2022-08-02T02:57:04.491Z,22.40
2022-08-02T02:59:35.125Z,22.39
2022-08-02T03:02:04.617Z,22.40
2022-08-02T03:04:55.333Z,22.39
2022-08-02T03:07:22.504Z,22.39
2022-08-02T03:09:54.390Z,22.39
2022-08-02T03:12:31.834Z,22.39
2022-08-02T03:15:04.078Z,22.39
2022-08-02T03:17:46.181Z,22.39
2022-08-02T03:20:15.954Z,22.38
2022-08-02T03:22:44.901Z,22.39
2022-08-02T03:25:14.207Z,22.39
2022-08-02T03:27:42.831Z,22.38
2022-08-02T03:30:13.879Z,22.38
2022-08-02T03:32:46.013Z,22.37
2022-08-02T03:35:22.873Z,22.37
2022-08-02T03:37:53.376Z,22.37
2022-08-02T03:40:22.825Z,22.37
2022-08-02T03:42:51.492Z,22.36
2022-08-02T03:45:21.534Z,22.38
2022-08-02T03:47:49.974Z,22.38
2022-08-02T03:50:18.842Z,22.37
2022-08-02T03:52:47.599Z,22.36
2022-08-02T03:55:15.816Z,22.36
2022-08-02T03:57:44.764Z,22.37
2022-08-02T04:00:18.541Z,22.36
2022-08-02T04:02:48.345Z,22.35
2022-08-02T04:05:17.456Z,22.36
2022-08-02T04:08:33.250Z,22.36
2022-08-02T04:10:54.058Z,22.35
2022-08-02T04:13:22.866Z,22.35
2022-08-02T04:15:55.050Z,22.35
2022-08-02T04:18:29.942Z,22.35
2022-08-02T04:21:00.124Z,22.36
2022-08-02T04:23:28.834Z,22.36
2022-08-02T04:26:00.550Z,22.36
2022-08-02T04:28:29.924Z,22.36
2022-08-02T04:30:59.011Z,22.36
2022-08-02T04:33:28.344Z,22.35
2022-08-02T04:35:59.767Z,22.36
2022-08-02T04:38:27.959Z,22.37
2022-08-02T04:40:57.116Z,22.36
2022-08-02T04:43:25.609Z,22.36
2022-08-02T04:45:55.229Z,22.37
2022-08-02T04:48:23.604Z,22.37
2022-08-02T04:50:53.264Z,22.37
2022-08-02T04:53:21.281Z,22.37
2022-08-02T04:55:49.249Z,22.37
2022-08-02T04:58:39.907Z,22.37
2022-08-02T05:01:05.351Z,22.38
2022-08-02T05:03:33.506Z,22.36
2022-08-02T05:06:02.897Z,22.37
2022-08-02T05:08:30.815Z,22.37
2022-08-02T05:10:58.779Z,22.38
2022-08-02T05:13:26.749Z,22.38
2022-08-02T05:15:54.759Z,22.37
2022-08-02T05:18:22.699Z,22.38
2022-08-02T05:20:53.980Z,22.37
2022-08-02T05:23:25.926Z,22.38
2022-08-02T05:25:53.988Z,22.39
2022-08-02T05:28:21.945Z,22.41
2022-08-02T05:30:49.826Z,22.41
2022-08-02T05:33:18.302Z,22.44
2022-08-02T05:35:46.733Z,22.45
2022-08-02T05:38:15.306Z,22.45
2022-08-02T05:40:54.888Z,22.45
2022-08-02T05:43:23.396Z,22.47
2022-08-02T05:45:53.628Z,22.48
2022-08-02T05:48:24.483Z,22.47
2022-08-02T05:51:01.020Z,22.48
2022-08-02T05:53:39.610Z,22.48
2022-08-02T05:56:18.939Z,22.49
2022-08-02T05:58:54.041Z,22.50
2022-08-02T06:01:30.103Z,22.51
2022-08-02T06:04:01.189Z,22.50
2022-08-02T06:06:33.394Z,22.50
2022-08-02T06:09:03.251Z,22.51
2022-08-02T06:11:37.649Z,22.52
2022-08-02T06:14:07.229Z,22.52
2022-08-02T06:16:36.848Z,22.52
2022-08-02T06:19:12.769Z,22.51
2022-08-02T06:22:32.543Z,22.53
2022-08-02T06:24:31.739Z,22.54
2022-08-02T06:27:03.268Z,22.54
2022-08-02T06:29:38.732Z,22.53
2022-08-02T06:32:08.959Z,22.53
2022-08-02T06:34:41.096Z,22.54
2022-08-02T06:37:20.676Z,22.54
2022-08-02T06:39:50.864Z,22.54
2022-08-02T06:42:31.897Z,22.55
2022-08-02T06:44:59.944Z,22.56
2022-08-02T06:47:27.979Z,22.57
2022-08-02T06:49:57.090Z,22.57
2022-08-02T06:52:29.347Z,22.58
2022-08-02T06:54:58.474Z,22.58
2022-08-02T06:57:28.192Z,22.58
2022-08-02T06:59:56.453Z,22.58
2022-08-02T07:02:24.506Z,22.59
2022-08-02T07:04:52.635Z,22.60
2022-08-02T07:07:20.667Z,22.59
2022-08-02T07:09:57.248Z,22.59
2022-08-02T07:12:31.899Z,22.60
2022-08-02T07:15:00.625Z,22.61
2022-08-02T07:17:28.954Z,22.63
2022-08-02T07:19:57.094Z,22.63
2022-08-02T07:22:27.143Z,22.63
2022-08-02T07:24:56.943Z,22.64
2022-08-02T07:27:26.194Z,22.64
2022-08-02T07:29:56.251Z,22.64
2022-08-02T07:32:25.838Z,22.64
2022-08-02T07:34:55.297Z,22.65
2022-08-02T07:37:35.942Z,22.64
2022-08-02T07:40:15.339Z,22.67
2022-08-02T07:42:49.329Z,22.70
2022-08-02T07:45:18.834Z,22.69
2022-08-02T07:47:46.944Z,22.70
2022-08-02T07:50:17.084Z,22.70
2022-08-02T07:52:46.345Z,22.70
2022-08-02T07:55:16.121Z,22.70
2022-08-02T07:57:46.764Z,22.71
2022-08-02T08:00:17.667Z,22.71
2022-08-02T08:02:47.591Z,22.71
2022-08-02T08:05:15.909Z,22.70
2022-08-02T08:07:43.807Z,22.71
2022-08-02T08:10:12.544Z,22.69
2022-08-02T08:12:40.589Z,22.69
2022-08-02T08:15:09.613Z,22.70
2022-08-02T08:17:38.633Z,22.72
2022-08-02T08:20:11.744Z,22.74
2022-08-02T08:22:42.172Z,22.75
2022-08-02T08:25:19.401Z,22.74
2022-08-02T08:27:51.483Z,22.74
2022-08-02T08:30:19.498Z,22.75
2022-08-02T08:32:47.535Z,22.76
2022-08-02T08:35:17.444Z,22.76
2022-08-02T08:37:45.486Z,22.75
2022-08-02T08:40:19.355Z,22.74
2022-08-02T08:42:51.177Z,22.76
2022-08-02T08:45:19.220Z,22.76
2022-08-02T08:47:56.008Z,22.75
2022-08-02T08:50:27.231Z,22.76
2022-08-02T08:53:02.409Z,22.77
2022-08-02T08:55:31.692Z,22.78
2022-08-02T08:58:01.380Z,22.79
2022-08-02T09:00:31.960Z,22.80
2022-08-02T09:03:00.626Z,22.80
2022-08-02T09:05:29.894Z,22.81
2022-08-02T09:07:57.884Z,22.81
2022-08-02T09:10:37.919Z,22.81
2022-08-02T09:13:31.338Z,22.83
2022-08-02T09:16:11.648Z,22.83
2022-08-02T09:18:45.383Z,22.84
2022-08-02T09:21:16.164Z,22.85
2022-08-02T09:23:46.745Z,22.84
2022-08-02T09:26:16.324Z,22.85
2022-08-02T09:28:46.444Z,22.86
2022-08-02T09:31:16.744Z,22.85
2022-08-02T09:33:46.571Z,22.85
2022-08-02T09:36:18.035Z,22.86
2022-08-02T09:38:54.921Z,22.87
2022-08-02T09:41:24.285Z,22.88
2022-08-02T09:44:04.616Z,22.89
2022-08-02T09:46:38.392Z,22.90
2022-08-02T09:49:10.152Z,23.00
2022-08-02T09:51:41.180Z,23.22
2022-08-02T09:54:12.150Z,23.34
2022-08-02T09:56:49.590Z,23.26
2022-08-02T09:59:19.078Z,23.19
2022-08-02T10:01:51.561Z,23.20
2022-08-02T10:04:29.893Z,23.17
2022-08-02T10:07:04.045Z,23.14
2022-08-02T10:09:32.786Z,23.14
2022-08-02T10:12:01.091Z,23.17
2022-08-02T10:14:29.235Z,23.16
2022-08-02T10:16:58.945Z,23.16
2022-08-02T10:19:59.800Z,23.18
2022-08-02T10:22:19.704Z,23.17
2022-08-02T10:24:49.074Z,23.18
2022-08-02T10:27:19.929Z,23.16
2022-08-02T10:29:54.829Z,23.15
2022-08-02T10:32:29.224Z,23.16
2022-08-02T10:35:18.657Z,23.18
2022-08-02T10:37:55.543Z,23.24
2022-08-02T10:40:27.318Z,23.26
2022-08-02T10:43:00.654Z,23.24
2022-08-02T10:45:29.934Z,23.26
2022-08-02T10:48:03.659Z,23.25
2022-08-02T10:50:53.638Z,23.30
2022-08-02T10:53:27.898Z,23.30
2022-08-02T10:55:57.120Z,23.29
2022-08-02T10:58:29.470Z,23.30
2022-08-02T11:00:59.395Z,23.32
2022-08-02T11:03:40.182Z,23.31
2022-08-02T11:06:24.947Z,23.34
2022-08-02T11:09:33.734Z,23.33
2022-08-02T11:12:04.335Z,23.25
2022-08-02T11:14:34.143Z,23.19
2022-08-02T11:17:16.374Z,23.16
2022-08-02T11:20:03.022Z,23.13
2022-08-02T11:22:31.007Z,23.12
2022-08-02T11:26:02.280Z,23.10
2022-08-02T11:28:25.653Z,23.09
2022-08-02T11:31:01.626Z,23.09
2022-08-02T11:33:36.085Z,23.08
2022-08-02T11:36:08.516Z,23.07
2022-08-02T11:38:36.573Z,23.05
2022-08-02T11:41:10.438Z,23.05
2022-08-02T11:43:40.716Z,23.05
2022-08-02T11:46:15.102Z,23.05
2022-08-02T11:48:45.170Z,23.04
2022-08-02T11:51:14.882Z,23.05
2022-08-02T11:53:44.566Z,23.03
2022-08-02T11:56:14.524Z,23.03
2022-08-02T11:59:03.051Z,23.03
2022-08-02T12:01:32.311Z,23.03
2022-08-02T12:04:06.956Z,23.03
2022-08-02T12:06:35.848Z,23.03
2022-08-02T12:09:06.065Z,23.04
2022-08-02T12:11:50.095Z,23.04
2022-08-02T12:14:18.776Z,23.05
2022-08-02T12:17:05.281Z,23.06
2022-08-02T12:19:33.290Z,23.06
2022-08-02T12:22:09.767Z,23.06
2022-08-02T12:24:38.327Z,23.06
2022-08-02T12:27:08.258Z,23.04
2022-08-02T12:29:58.789Z,23.05
2022-08-02T12:32:26.683Z,23.03
2022-08-02T12:35:03.619Z,23.04
2022-08-02T12:37:31.690Z,23.03
2022-08-02T12:39:59.897Z,23.03
2022-08-02T12:42:29.199Z,23.04
2022-08-02T12:44:59.190Z,23.03
2022-08-02T12:47:35.716Z,23.03
2022-08-02T12:50:16.432Z,23.05
2022-08-02T12:52:46.956Z,23.04
2022-08-02T12:55:19.918Z,23.04
2022-08-02T12:57:57.148Z,23.03
2022-08-02T13:00:27.673Z,23.03
2022-08-02T13:02:55.847Z,23.02
2022-08-02T13:05:24.052Z,23.03
2022-08-02T13:07:52.031Z,23.18
2022-08-02T13:10:20.332Z,23.34
2022-08-02T13:12:48.364Z,23.40
2022-08-02T13:15:46.497Z,23.50
2022-08-02T13:18:06.456Z,23.53
2022-08-02T13:20:34.750Z,23.57
2022-08-02T13:23:04.040Z,23.56
2022-08-02T13:25:32.278Z,23.58
2022-08-02T13:28:00.325Z,23.61
2022-08-02T13:30:30.826Z,23.60
2022-08-02T13:33:01.150Z,23.62
2022-08-02T13:35:29.929Z,23.63
2022-08-02T13:37:57.945Z,23.69
2022-08-02T13:40:26.678Z,23.66
2022-08-02T13:42:54.617Z,23.70
2022-08-02T13:45:22.763Z,23.67
2022-08-02T13:48:04.001Z,23.67
2022-08-02T13:50:33.884Z,23.69
2022-08-02T13:53:01.798Z,23.69
2022-08-02T13:55:29.906Z,23.74
2022-08-02T13:57:58.019Z,23.72
2022-08-02T14:00:34.962Z,23.69
2022-08-02T14:03:07.115Z,23.71
2022-08-02T14:05:47.710Z,23.63
2022-08-02T14:08:17.949Z,23.56
2022-08-02T14:10:47.153Z,23.48
2022-08-02T14:13:15.236Z,23.42
2022-08-02T14:15:43.984Z,23.38
2022-08-02T14:18:14.799Z,23.36
2022-08-02T14:20:43.134Z,23.34
2022-08-02T14:23:11.122Z,23.31
2022-08-02T14:25:39.128Z,23.30
2022-08-02T14:28:07.170Z,23.30
2022-08-02T14:30:35.223Z,23.29
2022-08-02T14:33:03.964Z,23.28
2022-08-02T14:35:33.647Z,23.28
2022-08-02T14:38:01.638Z,23.27
2022-08-02T14:40:31.618Z,23.29
2022-08-02T14:43:00.540Z,23.28
2022-08-02T14:45:36.632Z,23.28
2022-08-02T14:48:11.047Z,23.27
2022-08-02T14:50:40.544Z,23.29
2022-08-02T14:53:12.459Z,23.27
2022-08-02T14:55:42.264Z,23.27
2022-08-02T14:58:10.439Z,23.26
2022-08-02T15:00:40.921Z,23.26
2022-08-02T15:03:10.305Z,23.27
2022-08-02T15:05:38.368Z,23.26
2022-08-02T15:08:08.396Z,23.27
2022-08-02T15:10:36.420Z,23.27
2022-08-02T15:13:04.807Z,23.27
2022-08-02T15:15:33.233Z,23.26
2022-08-02T15:18:12.146Z,23.26
2022-08-02T15:20:40.193Z,23.26
2022-08-02T15:23:12.619Z,23.26
2022-08-02T15:25:41.945Z,23.27
2022-08-02T15:28:09.964Z,23.26
2022-08-02T15:30:38.530Z,23.27
2022-08-02T15:33:07.177Z,23.27
2022-08-02T15:35:35.214Z,23.25
2022-08-02T15:38:03.178Z,23.26
2022-08-02T15:40:32.513Z,23.25
2022-08-02T15:43:00.454Z,23.25
2022-08-02T15:45:28.466Z,23.23
2022-08-02T15:47:56.601Z,23.24
2022-08-02T15:50:24.611Z,23.24
2022-08-02T15:52:52.648Z,23.23
2022-08-02T15:55:20.566Z,23.23
2022-08-02T15:57:49.876Z,23.23
2022-08-02T16:00:19.279Z,23.22
2022-08-02T16:02:47.766Z,23.23
2022-08-02T16:05:17.953Z,23.23
2022-08-02T16:07:46.353Z,23.23
2022-08-02T16:10:14.925Z,23.22
2022-08-02T16:12:43.106Z,23.22
2022-08-02T16:15:13.532Z,23.22
2022-08-02T16:17:54.014Z,23.21
2022-08-02T16:20:23.347Z,23.22
2022-08-02T16:22:51.397Z,23.21
2022-08-02T16:25:19.435Z,23.21
2022-08-02T16:27:57.657Z,23.21
2022-08-02T16:30:37.131Z,23.21
2022-08-02T16:33:05.215Z,23.20
2022-08-02T16:35:34.863Z,23.21
2022-08-02T16:38:02.888Z,23.20
2022-08-02T16:40:32.605Z,23.21
2022-08-02T16:43:00.683Z,23.21
2022-08-02T16:45:29.178Z,23.21
2022-08-02T16:48:05.463Z,23.21
2022-08-02T16:50:34.275Z,23.22
2022-08-02T16:53:07.407Z,23.24
2022-08-02T16:55:36.220Z,23.24
2022-08-02T16:58:04.660Z,23.25
2022-08-02T17:00:38.498Z,23.26
2022-08-02T17:03:15.783Z,23.24
2022-08-02T17:05:55.977Z,23.25
2022-08-02T17:08:32.121Z,23.24
2022-08-02T17:11:03.537Z,23.24
2022-08-02T17:13:34.141Z,23.25
2022-08-02T17:16:20.362Z,23.24
2022-08-02T17:18:53.211Z,23.26
2022-08-02T17:21:21.258Z,23.27
2022-08-02T17:24:04.249Z,23.26
2022-08-02T17:26:34.513Z,23.27
2022-08-02T17:29:16.256Z,23.27
2022-08-02T17:32:05.714Z,23.27
2022-08-02T17:34:36.455Z,23.27
2022-08-02T17:37:06.141Z,23.27
2022-08-02T17:39:43.923Z,23.26
2022-08-02T17:42:20.202Z,23.26
2022-08-02T17:44:51.594Z,23.27
2022-08-02T17:47:19.531Z,23.26
2022-08-02T17:49:49.118Z,23.27
2022-08-02T17:52:51.813Z,23.27
2022-08-02T17:55:06.123Z,23.26
2022-08-02T17:57:57.639Z,23.27
2022-08-02T18:00:22.326Z,23.27
2022-08-02T18:02:52.558Z,23.28
2022-08-02T18:05:39.007Z,23.28
2022-08-02T18:08:08.702Z,23.28
2022-08-02T18:10:37.095Z,23.27
2022-08-02T18:13:05.348Z,23.28
2022-08-02T18:15:33.446Z,23.28
2022-08-02T18:18:01.696Z,23.29
2022-08-02T18:20:30.988Z,23.28
2022-08-02T18:22:59.213Z,23.29
2022-08-02T18:28:16.176Z,23.29
2022-08-02T18:30:44.537Z,23.29
2022-08-02T18:33:59.674Z,23.28
2022-08-02T18:36:02.346Z,23.28
2022-08-02T18:38:31.411Z,23.28
2022-08-02T18:41:02.769Z,23.28
2022-08-02T18:43:31.715Z,23.28
2022-08-02T18:46:16.281Z,23.28
2022-08-02T18:48:47.751Z,23.26
2022-08-02T18:51:19.062Z,23.28
2022-08-02T18:53:50.906Z,23.28
2022-08-02T18:56:24.617Z,23.28
2022-08-02T18:58:53.144Z,23.29
2022-08-02T19:01:33.818Z,23.29
2022-08-02T19:04:05.058Z,23.28
2022-08-02T19:06:34.522Z,23.28
2022-08-02T19:09:11.599Z,23.29
2022-08-02T19:11:48.376Z,23.29
2022-08-02T19:14:24.416Z,23.29
2022-08-02T19:16:55.668Z,23.28
2022-08-02T19:19:29.088Z,23.28
2022-08-02T19:22:16.134Z,23.29
2022-08-02T19:24:51.608Z,23.31
2022-08-02T19:30:08.697Z,23.29
2022-08-02T19:32:41.854Z,23.30
2022-08-02T19:35:30.530Z,23.29
2022-08-02T19:38:09.430Z,23.28
2022-08-02T19:40:39.092Z,23.28
2022-08-02T19:44:26.325Z,23.27
2022-08-02T19:45:57.537Z,23.27
2022-08-02T19:48:27.097Z,23.27
2022-08-02T19:51:00.621Z,23.27
2022-08-02T19:53:48.299Z,23.27
2022-08-02T19:56:25.233Z,23.27
2022-08-02T19:58:54.950Z,23.27
2022-08-02T20:01:37.524Z,23.26
2022-08-02T20:04:13.033Z,23.26
2022-08-02T20:06:42.810Z,23.29
2022-08-02T20:09:16.361Z,23.27
2022-08-02T20:11:45.039Z,23.28
2022-08-02T20:14:13.636Z,23.28
2022-08-02T20:16:41.856Z,23.27
2022-08-02T20:19:09.871Z,23.27
2022-08-02T20:21:43.549Z,23.27
2022-08-02T20:24:15.838Z,23.27
2022-08-02T20:26:47.120Z,23.27
2022-08-02T20:29:17.486Z,23.26
2022-08-02T20:32:04.710Z,23.26
2022-08-02T20:34:33.631Z,23.26
2022-08-02T20:38:01.381Z,23.27
2022-08-02T20:39:54.155Z,23.28
2022-08-02T20:42:22.619Z,23.28
2022-08-02T20:44:54.167Z,23.28
2022-08-02T20:47:27.551Z,23.28
2022-08-02T20:50:31.887Z,23.28
2022-08-02T20:53:00.256Z,23.28
2022-08-02T20:55:30.770Z,23.31
2022-08-02T20:58:01.409Z,23.29
2022-08-02T21:00:31.803Z,23.29
2022-08-02T21:03:00.204Z,23.29
2022-08-02T21:05:43.511Z,23.28
2022-08-02T21:08:19.049Z,23.28
2022-08-02T21:10:52.364Z,23.27
2022-08-02T21:13:24.231Z,23.27
2022-08-02T21:16:16.342Z,23.27
2022-08-02T21:18:46.704Z,23.27
2022-08-02T21:21:16.476Z,23.27
2022-08-02T21:23:48.669Z,23.27
2022-08-02T21:26:27.926Z,23.28
2022-08-02T21:28:58.467Z,23.27
2022-08-02T21:31:32.170Z,23.28
2022-08-02T21:34:01.677Z,23.28
2022-08-02T21:36:30.562Z,23.27
2022-08-02T21:39:04.432Z,23.28
2022-08-02T21:41:39.274Z,23.27
2022-08-02T21:44:16.000Z,23.27
2022-08-02T21:46:45.474Z,23.27
2022-08-02T21:49:14.262Z,23.28
2022-08-02T21:51:43.371Z,23.27
2022-08-02T21:54:18.198Z,23.28
2022-08-02T21:56:49.354Z,23.27
2022-08-02T21:59:17.852Z,23.27
2022-08-02T22:01:53.235Z,23.27
2022-08-02T22:04:21.945Z,23.28
2022-08-02T22:06:49.995Z,23.28
2022-08-02T22:09:42.058Z,23.28
2022-08-02T22:12:17.615Z,23.27
2022-08-02T22:14:49.785Z,23.28
2022-08-02T22:17:50.598Z,23.27
2022-08-02T22:20:12.242Z,23.28
2022-08-02T22:22:40.751Z,23.27
2022-08-02T22:25:21.720Z,23.27
2022-08-02T22:28:12.005Z,23.27
2022-08-02T22:30:52.720Z,23.27
2022-08-02T22:33:42.159Z,23.27
2022-08-02T22:36:14.560Z,23.26
2022-08-02T22:38:44.456Z,23.25
2022-08-02T22:41:13.544Z,23.24
2022-08-02T22:43:43.931Z,23.26
2022-08-02T22:46:15.432Z,23.25
2022-08-02T22:48:43.978Z,23.24
2022-08-02T22:51:12.615Z,23.24
2022-08-02T22:53:41.660Z,23.24
2022-08-02T22:56:09.619Z,23.24
2022-08-02T22:58:57.182Z,23.29
2022-08-02T22:58:58.523Z,23.30
2022-08-02T23:01:27.307Z,23.23
2022-08-02T23:03:55.244Z,23.23
2022-08-02T23:06:23.268Z,23.24
2022-08-02T23:08:51.141Z,23.23
2022-08-02T23:11:19.075Z,23.23
2022-08-02T23:13:46.986Z,23.23
2022-08-02T23:16:37.789Z,23.22
2022-08-02T23:19:24.726Z,23.23
2022-08-02T23:22:01.802Z,23.22
2022-08-02T23:24:33.089Z,23.22
2022-08-02T23:27:01.488Z,23.22
2022-08-02T23:29:29.421Z,23.21
2022-08-02T23:31:57.441Z,23.21
2022-08-02T23:34:28.511Z,23.21
2022-08-02T23:36:56.449Z,23.21
2022-08-02T23:39:24.512Z,23.21
2022-08-02T23:41:55.351Z,23.22
2022-08-02T23:44:24.119Z,23.21
2022-08-02T23:46:52.903Z,23.21
2022-08-02T23:49:21.637Z,23.20
2022-08-02T23:51:51.960Z,23.19
2022-08-02T23:54:20.665Z,23.19
2022-08-02T23:56:48.627Z,23.19
2022-08-02T23:59:16.721Z,23.20
